Flight Briefing for CPX804

Departure Arrival
Guantánamo Bay Naval Air Station (MUGM)
Click to view FAA NOTAMS
Norfolk Naval Station (Chambers Field) (KNGU)
Click to view FAA NOTAMS
Departure Time Arrival Time
N/A N/A
Aircraft Distance
B757-200SF 1025.27nm
Departure METAR Arrival METAR
MUGM 192256Z 09011KT 9999 FEW035 27/21 A3002 RMK SLP167 T02720212 KNGU 192259Z 04010KT 10SM BKN060 OVC150 04/M08 A3059 RMK AO2 SLP359 T00391083
Suggested Route
SOUTP EASTP ZIN Y350 ZQA BR65V ZFP WOLFO AR18 PANAL AR3 CLB ISO DRONE2


View recent IFR Routes data
Notes
USTRANSCOM CONTRACT FLIGHT | OVERFLIGHT OF CUBA PROHIBITED, SOUTP & EASTP FIXES MANDATORY

Charts and Procedures

Charts for MUGM
No chart available
Charts for KNGU
No chart available

Ventusky Weather




{"cat":null,"equip":null,"transponder":null,"pbn":"PBN\/","maxpax":null,"oew":"0.0","mzfw":"0.0","mtow":"0.0","mlw":"0.0","maxfuel":"0.0"} DEVELOPMENTAL TEST USE ONLY